Springdale, AR (72764)

3:19 PM CDT on July 03, 2015 (GMT -0500)
Shady Cove | | Change Station
CLOSE
Current Station
Personal Weather Station
Location: Springdale, AR
Elevation: 1207 ft
Nearby Weather Stations

Elev 1207 ft 36.20 °N, 94.02 °W | Updated 9 minutes ago

Mostly Cloudy
Mostly Cloudy
89.1 °F
Feels Like 95 °F
N
2.7
Wind Variable Wind from West

Today
High -- | Low -- °F
--% Chance of Precip.
Yesterday
High -- | Low -- °F
Precip. -- in
6:03 AM 8:37 PM
Waning Gibbous, 96% visible
Pressure 29.92 in
Visibility 10.0 miles
Clouds Mostly Cloudy 2900 ft
Mostly Cloudy 4300 ft
Mostly Cloudy 5000 ft
Heat Index 95 °F
Dew Point 71 °F
Humidity 55%
Rainfall 0.00 in
Snow Depth Not available.
UV 6 out of 12
Pollen .50 out of 12
Air Quality Not available.
Flu Activity Not available.
METAR KASG 031948Z 24006KT 10SM BKN029 BKN043 BKN050 28/22 A2992

More Conditions Fewer Conditions

Pressure 29.92 in
Visibility 10.0 miles
Clouds Mostly Cloudy 2900 ft
Mostly Cloudy 4300 ft
Mostly Cloudy 5000 ft
Heat Index 95 °F
Dew Point 71 °F
Humidity 55%
Rainfall 0.00 in
Snow Depth Not available.
UV 6 out of 12
Pollen .50 out of 12
Air Quality Not available.
Flu Activity Not available.
METAR KASG 031948Z 24006KT 10SM BKN029 BKN043 BKN050 28/22 A2992

More Conditions Fewer Conditions

Nowcast | as of 3:00 PM CDT on July 3, 2015

At 3:00 PM...National Weather Service Doppler radars continued to detect widely scattered showers and thunderstorms developing across portions of eastern Oklahoma and western Arkansas. A few stronger storms were located along and just south of Highway 44 in northeast Oklahoma. All of this activity was moving toward the southeast...around 25 miles per hour. Through 4:30 PM...scattered showers and thunderstorms will continue to develop across eastern Oklahoma and western Arkansas. Light to moderate rainfall can be expected...with amounts generally between a tenth to a quarter of an inch per hour. As daytime heating increases...the thunderstorms will become more prevalent. Some of the storms could become strong to severe...with the main threats being large hail and strong downburst winds. Cloud to ground lightning and heavy rainfall will also be likely.

×

10-Day Weather Forecast

×

Almanac

Astronomy

Jul. 03, 2015 Rise Set
Actual Time
Civil Twilight
Nautical Twilight
Astronomical Twilight
Moon
Length of Visible Light
Length of Day
Tomorrow will be .
, % of the Moon is Illuminated

Today's Extremes

State Highs State Lows

Community

WunderPhotos

Upload Photos

1,834,767 photos uploaded!

WunderBlogs® & News

Nearby

Air Quality

  Air Quality AQ Index Pollutant
Not available.

Snow Depth

Station Depth Elevation

Earthquake Activity

City Distance Mag. Time & Date
Minimum magnitude displayed is 2.5.

Coastal Water Temperatures

Place Temperature

Stations

Nearby Weather Stations

Station Location Temp. Windchill Dew Point Humidity Wind Precip. Elev Updated Type